Time;durP1;ratioP1;P1;durP2;ratioP2;P2;SDS_P1;SDS_P2;PMS_P1;PMS_P2;Temp;Humidity;BMP_temperature;BMP_pressure;BME280_temperature;BME280_humidity;BME280_pressure;Samples;Min_cycle;Max_cycle;Signal;HPM_P1;HPM_P2
2024/01/28 00:01:28;;;;;;;3.45;1.80;;;;;;;-1.78;70.34;99469.19;1225253;75;2916947;-66
2024/01/28 00:04:01;;;;;;;2.10;1.50;;;;;;;-1.76;70.32;99463.44;1225552;75;2920588;-67
2024/01/28 00:06:33;;;;;;;1.90;1.40;;;;;;;-1.90;70.61;99461.22;1225681;75;2912388;-65
2024/01/28 00:09:06;;;;;;;4.35;2.05;;;;;;;-1.97;69.86;99464.50;1224579;75;2918863;-67
2024/01/28 00:11:39;;;;;;;2.70;2.00;;;;;;;-2.11;71.69;99463.41;1208623;75;4082353;-67
2024/01/28 00:14:15;;;;;;;3.55;2.35;;;;;;;-2.00;70.89;99467.88;1226263;75;2912048;-66
2024/01/28 00:16:48;;;;;;;3.40;1.85;;;;;;;-2.03;70.90;99468.56;1225838;75;2920159;-66
2024/01/28 00:19:20;;;;;;;2.95;1.95;;;;;;;-1.97;70.11;99464.50;1225891;75;2919952;-65
2024/01/28 00:21:53;;;;;;;3.45;1.65;;;;;;;-1.93;69.75;99462.69;1224101;75;2917064;-67
2024/01/28 00:24:27;;;;;;;3.85;2.15;;;;;;;-2.12;70.78;99461.81;1224309;75;2917355;-66
2024/01/28 00:27:00;;;;;;;2.80;1.80;;;;;;;-2.12;70.43;99461.81;1225643;75;2911680;-66
2024/01/28 00:29:36;;;;;;;2.65;1.80;;;;;;;-2.00;69.65;99467.88;1226057;75;2914755;-64
2024/01/28 00:32:09;;;;;;;4.55;2.05;;;;;;;-1.97;69.39;99467.19;1225597;75;2912063;-67
2024/01/28 00:34:42;;;;;;;3.10;1.70;;;;;;;-1.97;69.37;99475.25;1226152;75;2913537;-66
2024/01/28 00:37:15;;;;;;;3.05;1.70;;;;;;;-1.91;69.67;99483.81;1224977;75;2903610;-67
2024/01/28 00:39:48;;;;;;;3.75;1.70;;;;;;;-2.08;69.46;99471.53;1225620;75;2914069;-65
2024/01/28 00:42:21;;;;;;;2.65;1.65;;;;;;;-2.00;68.61;99465.19;1225559;75;2912142;-67
2024/01/28 00:44:56;;;;;;;4.70;2.40;;;;;;;-2.04;68.50;99468.94;1225898;75;2919851;-69
2024/01/28 00:47:29;;;;;;;5.25;2.25;;;;;;;-2.17;69.83;99465.53;1224685;75;2916676;-65
2024/01/28 00:50:02;;;;;;;5.40;2.75;;;;;;;-2.26;73.60;99460.34;1224241;75;2915206;-67
2024/01/28 00:52:35;;;;;;;5.15;2.65;;;;;;;-2.02;72.33;99469.34;1224152;75;2920280;-66
2024/01/28 00:55:09;;;;;;;3.05;1.65;;;;;;;-1.98;71.91;99460.25;1225512;75;2919328;-65
2024/01/28 00:57:42;;;;;;;5.35;2.30;;;;;;;-2.22;73.93;99463.88;1225949;75;2914205;-64
2024/01/28 01:00:19;;;;;;;11.40;5.10;;;;;;;-2.17;72.91;99465.53;1225657;75;2911873;-65
2024/01/28 01:02:53;;;;;;;5.30;2.90;;;;;;;-2.10;72.59;99465.72;1225648;75;2911180;-65
2024/01/28 01:05:25;;;;;;;5.85;2.75;;;;;;;-2.05;71.73;99470.81;1224879;75;2914252;-64
2024/01/28 01:07:58;;;;;;;4.40;2.30;;;;;;;-1.93;71.18;99475.31;1225011;75;2918539;-64
2024/01/28 01:10:31;;;;;;;2.65;1.65;;;;;;;-2.01;71.13;99466.31;1225270;75;2924314;-65
2024/01/28 01:13:04;;;;;;;3.15;2.05;;;;;;;-2.02;71.31;99472.03;1225072;75;2914839;-67
2024/01/28 01:15:39;;;;;;;2.80;1.90;;;;;;;-2.11;72.36;99464.16;1224603;75;2922681;-66
2024/01/28 01:18:12;;;;;;;4.05;2.65;;;;;;;-2.08;72.30;99460.78;1225550;75;2918551;-67
2024/01/28 01:20:45;;;;;;;4.25;2.20;;;;;;;-2.23;72.83;99467.72;1223980;75;2954490;-66
2024/01/28 01:23:18;;;;;;;2.95;2.20;;;;;;;-2.22;72.73;99469.25;1189330;75;5711035;-66
2024/01/28 01:25:50;;;;;;;3.35;2.20;;;;;;;-2.23;73.17;99473.06;1222664;75;2907573;-66
2024/01/28 01:28:21;;;;;;;4.50;2.20;;;;;;;-2.20;73.00;99477.75;1224840;75;2912650;-66
2024/01/28 01:30:56;;;;;;;3.20;1.95;;;;;;;-2.28;72.37;99477.91;1224231;75;2914282;-67
2024/01/28 01:33:29;;;;;;;3.70;2.00;;;;;;;-2.27;71.92;99477.56;1222362;75;2917318;-65
2024/01/28 01:36:02;;;;;;;3.95;1.80;;;;;;;-2.28;72.03;99481.38;1174587;75;5750325;-67
2024/01/28 01:38:35;;;;;;;4.25;2.20;;;;;;;-2.39;72.50;99480.31;1221156;75;3006043;-67
2024/01/28 01:41:08;;;;;;;3.95;2.15;;;;;;;-2.37;73.36;99478.84;1223909;75;2941589;-66
2024/01/28 01:43:41;;;;;;;5.20;2.15;;;;;;;-2.36;72.83;99491.16;1222825;75;2919986;-65
2024/01/28 01:46:19;;;;;;;3.60;1.80;;;;;;;-2.33;73.24;99492.38;1224313;75;2944779;-66
2024/01/28 01:48:54;;;;;;;4.50;1.90;;;;;;;-2.21;72.67;99496.88;1225039;75;2920839;-67
2024/01/28 01:51:28;;;;;;;2.35;1.55;;;;;;;-2.26;73.08;99497.09;1196938;75;5014293;-66
2024/01/28 01:54:02;;;;;;;4.00;2.05;;;;;;;-2.17;71.70;99495.81;1223993;75;2918044;-66
2024/01/28 01:56:37;;;;;;;3.15;1.75;;;;;;;-2.28;72.26;99505.53;1224522;75;2915071;-68
2024/01/28 01:59:10;;;;;;;3.55;1.95;;;;;;;-2.37;73.22;99502.97;1225478;75;2917837;-66
2024/01/28 02:01:47;;;;;;;4.95;2.15;;;;;;;-2.45;73.04;99508.53;1224680;75;2925778;-65
2024/01/28 02:04:20;;;;;;;5.30;2.30;;;;;;;-2.35;73.39;99516.06;1224882;75;2935668;-65
2024/01/28 02:06:54;;;;;;;4.70;2.35;;;;;;;-2.53;74.29;99509.44;1224823;75;2923591;-68
2024/01/28 02:09:26;;;;;;;4.00;2.10;;;;;;;-2.52;74.21;99511.78;1224869;75;2916931;-66
2024/01/28 02:11:59;;;;;;;2.35;1.70;;;;;;;-2.47;74.02;99516.13;1224626;75;2914723;-65
2024/01/28 02:14:35;;;;;;;3.30;2.00;;;;;;;-2.40;72.90;99510.94;1222516;75;2916104;-67
2024/01/28 02:17:11;;;;;;;3.15;1.70;;;;;;;-2.64;74.71;99517.19;1225156;75;2903095;-68
2024/01/28 02:19:43;;;;;;;5.75;1.90;;;;;;;-2.53;75.06;99520.16;1188186;75;5944872;-65
2024/01/28 02:22:16;;;;;;;3.10;1.95;;;;;;;-2.71;75.55;99522.38;1223001;75;2914453;-65
2024/01/28 02:24:53;;;;;;;5.50;2.70;;;;;;;-2.86;76.69;99521.97;1225302;75;2912279;-68
2024/01/28 02:27:27;;;;;;;5.45;2.40;;;;;;;-2.79;76.71;99524.03;1225043;75;2903504;-67
2024/01/28 02:30:00;;;;;;;4.35;2.35;;;;;;;-2.82;77.18;99522.03;1199450;75;4844395;-66
2024/01/28 02:32:32;;;;;;;4.30;2.15;;;;;;;-2.64;76.75;99520.66;1223695;75;2912121;-68
2024/01/28 02:35:05;;;;;;;2.75;1.85;;;;;;;-2.63;76.11;99524.09;1223241;75;2921148;-66
2024/01/28 02:37:38;;;;;;;2.80;1.70;;;;;;;-2.72;76.46;99521.56;1224049;75;2920447;-68
2024/01/28 02:40:15;;;;;;;2.75;1.60;;;;;;;-2.73;76.59;99527.28;1223456;75;2927280;-67
2024/01/28 02:42:48;;;;;;;2.45;1.70;;;;;;;-2.69;76.16;99514.75;1223719;75;2915794;-68
2024/01/28 02:45:23;;;;;;;3.90;1.55;;;;;;;-2.69;76.54;99534.31;1224463;75;2960504;-65
2024/01/28 02:47:56;;;;;;;3.55;2.20;;;;;;;-3.04;78.19;99521.44;1194758;75;5279152;-68
2024/01/28 02:50:29;;;;;;;2.40;1.60;;;;;;;-2.89;77.64;99511.91;1224765;75;2932005;-67
2024/01/28 02:53:01;;;;;;;4.35;2.50;;;;;;;-3.13;80.78;99520.78;1226081;75;2913249;-66
2024/01/28 02:55:37;;;;;;;5.00;2.75;;;;;;;-3.03;81.30;99516.84;1225264;75;2922141;-68
2024/01/28 02:58:10;;;;;;;4.80;2.55;;;;;;;-2.92;80.20;99525.22;1225089;75;2910057;-66
2024/01/28 03:00:42;;;;;;;2.75;1.90;;;;;;;-3.03;80.49;99512.28;1225902;75;2915970;-65
2024/01/28 03:03:15;;;;;;;3.35;1.85;;;;;;;-2.92;79.06;99517.16;1225805;75;2928411;-68
2024/01/28 03:05:48;;;;;;;2.65;1.75;;;;;;;-2.99;79.88;99517.75;1225265;75;2917177;-66
2024/01/28 03:08:21;;;;;;;2.30;1.65;;;;;;;-3.12;81.95;99525.03;1224922;75;2914508;-66
2024/01/28 03:10:56;;;;;;;4.30;2.70;;;;;;;-3.16;83.75;99524.13;1224714;75;2924925;-65
2024/01/28 03:13:29;;;;;;;4.35;2.40;;;;;;;-3.17;83.17;99527.94;1225820;75;2916337;-65
2024/01/28 03:16:02;;;;;;;5.95;2.75;;;;;;;-3.04;81.56;99529.47;1225804;75;2911773;-66
2024/01/28 03:18:35;;;;;;;4.60;1.95;;;;;;;-3.11;81.17;99531.94;1224424;75;2915171;-67
2024/01/28 03:21:08;;;;;;;3.65;1.90;;;;;;;-3.17;82.15;99524.50;1225257;75;2915375;-66
2024/01/28 03:23:41;;;;;;;2.50;1.75;;;;;;;-3.10;82.20;99527.34;1224893;75;2923499;-66
2024/01/28 03:26:19;;;;;;;2.20;1.60;;;;;;;-3.15;82.77;99528.38;1225691;75;2914551;-67
2024/01/28 03:28:52;;;;;;;2.90;1.55;;;;;;;-3.12;81.93;99525.03;1224888;75;2917376;-65
2024/01/28 03:31:24;;;;;;;1.50;1.30;;;;;;;-3.17;81.61;99524.50;1224710;75;2921729;-63
2024/01/28 03:33:57;;;;;;;4.75;2.60;;;;;;;-3.36;84.90;99527.75;1225437;75;2917867;-66
2024/01/28 03:36:30;;;;;;;4.25;2.25;;;;;;;-3.31;83.47;99520.25;1225048;75;2911919;-66
2024/01/28 03:39:04;;;;;;;5.60;2.45;;;;;;;-3.34;85.06;99530.84;1226058;75;2912445;-67
2024/01/28 03:41:39;;;;;;;3.00;2.10;;;;;;;-3.45;85.21;99520.59;1225239;75;2925115;-67
2024/01/28 03:44:15;;;;;;;4.50;2.60;;;;;;;-3.27;85.45;99529.19;1225125;75;2915415;-65
2024/01/28 03:46:48;;;;;;;3.60;2.25;;;;;;;-3.41;84.99;99527.97;1225170;75;2915409;-68
2024/01/28 03:49:20;;;;;;;3.70;2.30;;;;;;;-3.37;85.65;99532.28;1224268;75;2915137;-66
2024/01/28 03:51:53;;;;;;;4.45;2.60;;;;;;;-3.34;84.70;99537.00;1224820;75;2914605;-67
2024/01/28 03:54:26;;;;;;;4.80;2.70;;;;;;;-3.38;85.30;99541.47;1223771;75;2920089;-67
2024/01/28 03:57:01;;;;;;;6.80;3.55;;;;;;;-3.50;87.14;99539.56;1223951;75;2913958;-64
2024/01/28 03:59:34;;;;;;;5.60;3.10;;;;;;;-3.19;83.31;99532.84;1224310;75;2921919;-67
2024/01/28 04:02:07;;;;;;;3.95;2.30;;;;;;;-3.07;80.83;99532.06;1223750;75;2915835;-68
2024/01/28 04:04:40;;;;;;;4.45;2.15;;;;;;;-2.79;79.01;99537.44;1224189;75;2915448;-66
2024/01/28 04:07:13;;;;;;;2.25;1.65;;;;;;;-2.91;79.96;99526.75;1224352;75;2918419;-65
2024/01/28 04:09:46;;;;;;;2.60;1.65;;;;;;;-3.05;80.73;99533.28;1221293;75;2917929;-68
2024/01/28 04:12:21;;;;;;;3.15;1.75;;;;;;;-3.09;81.62;99531.59;1224518;75;2919502;-66
2024/01/28 04:14:54;;;;;;;3.30;1.90;;;;;;;-3.07;81.86;99535.50;1224608;75;2911551;-66
2024/01/28 04:17:28;;;;;;;2.25;1.70;;;;;;;-3.12;81.71;99530.38;1224062;75;2916984;-67
2024/01/28 04:20:00;;;;;;;4.85;2.40;;;;;;;-3.31;83.08;99538.22;1223861;75;2911276;-65
2024/01/28 04:22:33;;;;;;;3.95;2.00;;;;;;;-3.25;82.45;99550.25;1223203;75;2923726;-66
2024/01/28 04:25:07;;;;;;;3.15;1.70;;;;;;;-3.14;81.22;99537.97;1223780;75;2920945;-65
2024/01/28 04:27:42;;;;;;;2.10;1.55;;;;;;;-3.24;81.76;99547.25;1224081;75;2914137;-65
2024/01/28 04:30:16;;;;;;;2.65;1.40;;;;;;;-3.22;80.93;99550.38;1223394;67;2922984;-65
2024/01/28 04:32:49;;;;;;;3.25;1.65;;;;;;;-3.27;81.79;99552.50;1224186;75;2916124;-64
2024/01/28 04:35:22;;;;;;;1.35;1.20;;;;;;;-3.34;80.34;99554.94;1223935;75;2917361;-65
2024/01/28 04:37:56;;;;;;;2.55;1.70;;;;;;;-3.53;83.36;99555.53;1224055;75;2924165;-64
2024/01/28 04:40:29;;;;;;;4.35;2.00;;;;;;;-3.82;87.45;99559.97;1223951;75;2917871;-65
2024/01/28 04:43:05;;;;;;;3.20;1.80;;;;;;;-3.29;84.20;99565.47;1224477;75;2919197;-65
2024/01/28 04:45:38;;;;;;;1.95;1.40;;;;;;;-3.32;83.97;99574.94;1223957;75;2924493;-65
2024/01/28 04:48:12;;;;;;;1.60;1.30;;;;;;;-3.31;84.19;99573.03;1224050;75;2917007;-64
2024/01/28 04:50:44;;;;;;;2.30;1.50;;;;;;;-3.45;84.70;99574.13;1223731;75;2925699;-66
2024/01/28 04:53:17;;;;;;;3.75;2.20;;;;;;;-3.29;85.92;99568.13;1223490;75;2936099;-65
2024/01/28 04:55:50;;;;;;;3.10;2.05;;;;;;;-3.46;86.13;99575.28;1206719;75;4217270;-65
2024/01/28 04:58:26;;;;;;;3.10;1.80;;;;;;;-3.35;86.71;99580.16;1224041;75;2923628;-66
2024/01/28 05:00:58;;;;;;;3.75;2.05;;;;;;;-3.35;87.54;99585.53;1223680;75;2915182;-67
2024/01/28 05:03:31;;;;;;;4.05;2.50;;;;;;;-3.41;87.05;99582.31;1224625;75;2920597;-65
2024/01/28 05:06:04;;;;;;;4.95;2.50;;;;;;;-3.34;86.20;99584.41;1223892;75;2947360;-65
2024/01/28 05:08:37;;;;;;;2.60;1.90;;;;;;;-3.37;85.03;99582.41;1224070;75;2919922;-64
2024/01/28 05:11:10;;;;;;;4.60;2.60;;;;;;;-3.79;88.45;99583.38;1223755;75;2927185;-64
2024/01/28 05:13:45;;;;;;;5.55;2.40;;;;;;;-3.86;91.13;99586.59;1224528;75;2911774;-66
2024/01/28 05:16:18;;;;;;;5.60;2.30;;;;;;;-3.86;90.96;99583.13;1223065;75;2922106;-64
2024/01/28 05:18:51;;;;;;;5.00;2.75;;;;;;;-3.83;92.32;99584.38;1223176;75;2921107;-64
2024/01/28 05:21:24;;;;;;;5.10;3.20;;;;;;;-3.59;89.82;99580.94;1223810;75;2925176;-64
2024/01/28 05:23:57;;;;;;;3.95;2.35;;;;;;;-3.68;87.48;99587.19;1223999;75;2923274;-66
2024/01/28 05:26:31;;;;;;;4.10;2.45;;;;;;;-3.70;86.33;99594.00;1223619;75;2914802;-64
2024/01/28 05:29:07;;;;;;;4.70;2.15;;;;;;;-3.83;87.53;99582.47;1223762;75;2915732;-66
2024/01/28 05:31:39;;;;;;;3.45;2.45;;;;;;;-3.82;91.13;99581.38;1222858;75;2924382;-63
2024/01/28 05:34:12;;;;;;;3.40;2.30;;;;;;;-3.85;91.43;99584.69;1223837;75;2914997;-67
2024/01/28 05:36:45;;;;;;;2.75;1.90;;;;;;;-3.87;91.30;99586.94;1223631;75;2916432;-65
2024/01/28 05:39:18;;;;;;;3.00;2.05;;;;;;;-3.80;89.85;99597.88;1222994;75;2915849;-65
2024/01/28 05:41:51;;;;;;;3.30;2.00;;;;;;;-4.02;94.29;99603.59;1223584;75;2922375;-70
2024/01/28 05:44:26;;;;;;;4.10;2.25;;;;;;;-3.86;92.06;99613.34;1223436;75;2925037;-67
2024/01/28 05:46:59;;;;;;;3.75;2.25;;;;;;;-3.79;88.50;99610.13;1223808;75;2915302;-63
2024/01/28 05:49:32;;;;;;;2.90;2.00;;;;;;;-3.80;88.29;99621.97;1224072;75;2923365;-67
2024/01/28 05:52:05;;;;;;;7.90;4.20;;;;;;;-4.18;93.23;99622.16;1223201;75;2935789;-67
2024/01/28 05:54:41;;;;;;;9.55;4.70;;;;;;;-4.22;94.23;99613.22;1224863;75;2924536;-68
2024/01/28 05:57:14;;;;;;;10.65;5.35;;;;;;;-4.20;99.16;99611.78;1225330;75;2915052;-66
2024/01/28 05:59:49;;;;;;;9.65;4.60;;;;;;;-3.99;97.77;99611.75;1223685;75;2919927;-65
2024/01/28 06:02:22;;;;;;;11.65;6.50;;;;;;;-3.84;94.76;99617.59;1224846;75;2923801;-66
2024/01/28 06:04:55;;;;;;;14.70;8.75;;;;;;;-4.02;92.69;99607.03;1223756;75;2923304;-67
2024/01/28 06:07:28;;;;;;;19.95;11.35;;;;;;;-4.20;96.74;99611.00;1224509;75;2939218;-67
2024/01/28 06:10:00;;;;;;;11.80;7.95;;;;;;;-4.00;93.81;99622.78;1224840;75;2917652;-66
2024/01/28 06:12:33;;;;;;;9.65;5.90;;;;;;;-3.99;92.96;99627.00;1224871;75;2917934;-67
2024/01/28 06:15:10;;;;;;;9.45;6.05;;;;;;;-4.12;92.27;99620.84;1224528;75;2918581;-68
2024/01/28 06:17:43;;;;;;;18.50;11.30;;;;;;;-4.14;94.48;99631.84;1225106;75;2916816;-65
2024/01/28 06:20:17;;;;;;;14.45;9.05;;;;;;;-4.14;93.93;99618.47;1224885;75;2915378;-65
2024/01/28 06:22:50;;;;;;;10.75;6.55;;;;;;;-4.12;92.61;99624.28;1224667;75;2916773;-63
2024/01/28 06:25:25;;;;;;;10.45;5.55;;;;;;;-4.15;93.03;99624.97;1225188;75;2843929;-66
2024/01/28 06:27:58;;;;;;;5.75;3.95;;;;;;;-4.26;93.10;99620.34;1224089;75;2918664;-66
2024/01/28 06:30:35;;;;;;;6.55;3.90;;;;;;;-4.24;92.83;99626.91;1223860;75;2915910;-64
2024/01/28 06:33:08;;;;;;;5.40;3.20;;;;;;;-4.34;96.29;99621.97;1224410;75;2917277;-65
2024/01/28 06:35:41;;;;;;;4.75;2.80;;;;;;;-4.34;96.09;99628.09;1225019;75;2920188;-64
2024/01/28 06:38:14;;;;;;;5.35;2.65;;;;;;;-4.34;97.21;99619.31;1224189;75;2914397;-67
2024/01/28 06:40:47;;;;;;;8.45;3.60;;;;;;;-4.46;99.47;99633.38;1224676;75;2922358;-66
2024/01/28 06:43:22;;;;;;;7.45;4.40;;;;;;;-4.46;99.80;99622.69;1225155;75;2921536;-66
2024/01/28 06:45:59;;;;;;;11.80;5.65;;;;;;;-4.33;100.00;99632.34;1224434;75;2921925;-66
2024/01/28 06:48:32;;;;;;;7.20;4.30;;;;;;;-4.08;100.00;99643.94;1224458;75;2943902;-64
2024/01/28 06:51:09;;;;;;;5.75;3.60;;;;;;;-4.17;100.00;99647.78;1224162;75;2917318;-65
2024/01/28 06:53:42;;;;;;;5.20;3.20;;;;;;;-4.10;95.86;99650.72;1226299;75;2922316;-67
2024/01/28 06:56:15;;;;;;;7.00;3.70;;;;;;;-4.32;98.55;99659.88;1224623;75;2917374;-64
2024/01/28 06:58:48;;;;;;;5.35;3.00;;;;;;;-4.21;97.74;99657.56;1225099;75;2916160;-67
2024/01/28 07:01:24;;;;;;;6.00;3.60;;;;;;;-4.28;96.50;99658.13;1225047;75;2916146;-65
2024/01/28 07:03:57;;;;;;;4.85;3.35;;;;;;;-4.21;95.98;99654.91;1225022;75;2920090;-66
2024/01/28 07:06:29;;;;;;;5.35;2.80;;;;;;;-4.14;94.96;99658.59;1224998;75;2919070;-64
2024/01/28 07:09:02;;;;;;;5.80;3.30;;;;;;;-4.17;96.77;99653.13;1225726;75;2912677;-67
2024/01/28 07:11:36;;;;;;;5.65;3.25;;;;;;;-4.08;98.52;99649.28;1224076;75;2936880;-66
2024/01/28 07:14:08;;;;;;;4.55;2.90;;;;;;;-3.87;94.56;99657.28;1224809;75;2922487;-66
2024/01/28 07:16:44;;;;;;;6.40;4.40;;;;;;;-1.79;85.73;99657.44;1225441;75;2921673;-63
2024/01/28 07:19:17;;;;;;;11.75;7.25;;;;;;;1.14;70.89;99660.03;1224690;75;2922288;-64
2024/01/28 07:21:51;;;;;;;13.65;7.85;;;;;;;2.85;62.67;99656.97;1226020;75;2914706;-67
2024/01/28 07:24:24;;;;;;;10.95;6.45;;;;;;;4.47;57.55;99657.41;1224507;75;2913503;-64
2024/01/28 07:26:57;;;;;;;8.75;5.00;;;;;;;6.02;52.79;99657.97;1224243;67;2915581;-64
2024/01/28 07:29:29;;;;;;;8.40;4.90;;;;;;;6.70;49.82;99668.47;1225034;75;2926606;-66
2024/01/28 07:32:05;;;;;;;8.90;4.95;;;;;;;7.39;47.73;99666.72;1225482;75;2927636;-66
2024/01/28 07:34:38;;;;;;;8.35;4.75;;;;;;;7.62;46.61;99666.06;1225040;75;2919262;-66
2024/01/28 07:37:10;;;;;;;5.70;3.80;;;;;;;9.19;43.79;99667.84;1225027;75;2915179;-64
2024/01/28 07:39:43;;;;;;;8.65;4.35;;;;;;;10.04;41.60;99664.66;1225148;75;2923702;-64
2024/01/28 07:42:16;;;;;;;6.70;4.40;;;;;;;11.81;38.91;99667.47;1224671;75;2922249;-66
2024/01/28 07:44:49;;;;;;;6.95;4.05;;;;;;;12.70;37.20;99664.06;1225791;75;2913775;-64
2024/01/28 07:47:25;;;;;;;9.00;5.30;;;;;;;10.37;39.35;99662.06;1225631;75;2911196;-67
2024/01/28 07:49:58;;;;;;;9.65;5.45;;;;;;;6.99;43.98;99665.50;1224005;75;2926357;-66
2024/01/28 07:52:32;;;;;;;10.05;6.15;;;;;;;4.79;49.18;99669.44;1225330;75;2920688;-68
2024/01/28 07:55:05;;;;;;;8.75;5.05;;;;;;;4.30;51.07;99666.25;1225394;75;2914638;-68
2024/01/28 07:57:38;;;;;;;7.65;4.90;;;;;;;4.31;52.61;99667.06;1224957;75;2916968;-66
2024/01/28 08:00:13;;;;;;;5.75;3.60;;;;;;;4.31;53.22;99675.19;1224392;75;2913846;-64
2024/01/28 08:02:48;;;;;;;6.35;3.45;;;;;;;4.35;53.73;99670.53;1223980;75;2918243;-68
2024/01/28 08:05:21;;;;;;;4.05;2.70;;;;;;;6.09;50.10;99665.34;1224839;75;2912452;-65
2024/01/28 08:07:54;;;;;;;4.75;3.05;;;;;;;7.33;47.36;99662.09;1225566;75;2917829;-66
2024/01/28 08:10:26;;;;;;;6.05;3.20;;;;;;;8.36;45.33;99665.56;1224801;75;2927652;-67
2024/01/28 08:12:59;;;;;;;5.30;2.90;;;;;;;9.30;44.30;99675.84;1224700;75;2928089;-65
2024/01/28 08:15:32;;;;;;;4.50;2.60;;;;;;;9.30;43.84;99670.38;1226035;75;2914520;-66
2024/01/28 08:18:08;;;;;;;3.65;2.50;;;;;;;10.18;41.49;99669.84;1224573;75;2931323;-67
2024/01/28 08:20:41;;;;;;;3.95;2.30;;;;;;;11.07;40.12;99664.31;1225580;75;2916631;-67
2024/01/28 08:23:13;;;;;;;4.30;2.00;;;;;;;10.84;39.81;99667.22;1226273;75;2920550;-66
2024/01/28 08:25:46;;;;;;;4.00;2.20;;;;;;;10.79;40.82;99673.22;1224985;75;2937472;-66
2024/01/28 08:28:20;;;;;;;3.70;2.55;;;;;;;10.93;40.22;99667.41;1224928;75;2920816;-67
2024/01/28 08:30:55;;;;;;;7.90;5.40;;;;;;;10.05;41.20;99660.72;1225674;75;2913652;-67
2024/01/28 08:33:30;;;;;;;9.25;5.15;;;;;;;9.68;41.95;99665.38;1223990;75;2935741;-67
2024/01/28 08:36:03;;;;;;;10.90;5.30;;;;;;;8.72;42.95;99657.66;1225841;75;2912581;-67
2024/01/28 08:38:36;;;;;;;7.65;4.40;;;;;;;9.98;41.79;99664.41;1224044;75;2925360;-64
2024/01/28 08:41:09;;;;;;;7.55;5.05;;;;;;;10.00;42.00;99658.47;1224461;75;2920281;-65
2024/01/28 08:43:43;;;;;;;9.50;4.35;;;;;;;9.54;42.30;99663.69;1225541;75;2914282;-67
2024/01/28 08:46:16;;;;;;;6.05;3.80;;;;;;;9.78;41.96;99658.16;1224222;75;2923869;-64
2024/01/28 08:48:52;;;;;;;5.45;3.35;;;;;;;9.68;41.92;99667.34;1224197;75;2920826;-66
2024/01/28 08:51:25;;;;;;;5.15;3.05;;;;;;;10.10;41.00;99670.41;1224669;75;2916115;-65
2024/01/28 08:53:58;;;;;;;4.55;2.90;;;;;;;10.59;40.42;99673.28;1224877;75;2917717;-64
2024/01/28 08:56:31;;;;;;;3.55;2.65;;;;;;;11.11;39.61;99674.41;1224466;75;2939088;-65
2024/01/28 08:59:04;;;;;;;6.15;3.10;;;;;;;10.65;39.86;99675.09;1225139;75;2915748;-66
2024/01/28 09:01:37;;;;;;;3.75;2.70;;;;;;;10.63;39.60;99673.97;1224610;75;2927070;-66
2024/01/28 09:04:13;;;;;;;4.90;2.20;;;;;;;11.17;39.18;99678.19;1224940;75;2935031;-66
2024/01/28 09:06:46;;;;;;;4.90;2.80;;;;;;;9.90;41.20;99681.38;1224089;75;2919843;-68
2024/01/28 09:09:19;;;;;;;4.00;2.50;;;;;;;10.40;41.07;99672.16;1224391;75;2920126;-68
2024/01/28 09:11:51;;;;;;;4.65;2.35;;;;;;;9.55;41.17;99664.47;1223627;75;2920474;-65
2024/01/28 09:14:24;;;;;;;6.30;3.00;;;;;;;9.44;41.04;99667.38;1223901;75;2922285;-68
2024/01/28 09:16:57;;;;;;;4.60;2.60;;;;;;;10.05;40.42;99673.63;1224026;75;2922569;-66
2024/01/28 09:19:32;;;;;;;4.65;2.40;;;;;;;10.57;41.04;99681.94;1225167;75;2910536;-65
2024/01/28 09:22:06;;;;;;;4.00;2.35;;;;;;;9.80;40.19;99672.94;1224565;75;2923606;-66
2024/01/28 09:24:39;;;;;;;3.70;2.20;;;;;;;10.63;39.81;99676.69;1224807;75;2914748;-65
2024/01/28 09:27:13;;;;;;;3.75;2.30;;;;;;;10.07;39.70;99676.72;1224078;75;2917923;-66
2024/01/28 09:29:45;;;;;;;3.60;2.00;;;;;;;9.84;39.63;99678.38;1224611;75;2916136;-64
2024/01/28 09:32:21;;;;;;;5.05;2.70;;;;;;;10.74;39.31;99679.22;1223703;75;2923600;-64
2024/01/28 09:34:56;;;;;;;3.80;1.95;;;;;;;10.63;39.37;99677.50;1224929;75;2918274;-66
2024/01/28 09:37:29;;;;;;;4.65;2.10;;;;;;;11.75;39.38;99682.94;1224162;75;2921375;-65
2024/01/28 09:40:02;;;;;;;7.00;3.15;;;;;;;11.66;39.69;99673.34;1223552;75;2924545;-65
2024/01/28 09:42:45;;;;;;;5.10;2.70;;;;;;;11.45;39.52;99679.44;1223794;75;2921675;-65
2024/01/28 09:45:19;;;;;;;11.75;4.20;;;;;;;11.17;40.46;99692.66;1224492;75;2921796;-67
2024/01/28 09:47:52;;;;;;;5.55;3.20;;;;;;;11.73;39.67;99688.84;1224177;75;2916405;-66
2024/01/28 09:50:28;;;;;;;5.55;3.15;;;;;;;11.37;39.19;99680.81;1224246;75;2918343;-64
2024/01/28 09:53:01;;;;;;;5.50;2.65;;;;;;;11.29;40.04;99680.22;1224310;75;2920686;-67
2024/01/28 09:55:34;;;;;;;5.45;2.80;;;;;;;12.30;39.74;99668.03;1225007;75;2916118;-67
2024/01/28 09:58:07;;;;;;;6.25;2.95;;;;;;;11.90;39.59;99678.63;1224618;75;2920139;-68
2024/01/28 10:00:41;;;;;;;5.00;2.10;;;;;;;11.74;40.36;99682.19;1225298;75;2912493;-64
2024/01/28 10:03:13;;;;;;;4.15;2.25;;;;;;;12.39;38.98;99670.16;1226201;75;2911287;-65
2024/01/28 10:05:49;;;;;;;6.35;2.40;;;;;;;11.41;41.04;99674.03;1225092;75;2922593;-67
2024/01/28 10:08:22;;;;;;;5.40;2.10;;;;;;;11.59;40.14;99668.06;1225111;75;2918812;-64
2024/01/28 10:10:58;;;;;;;3.75;2.35;;;;;;;11.37;41.55;99661.59;1224689;75;2914296;-65
2024/01/28 10:13:31;;;;;;;3.95;1.90;;;;;;;10.91;41.81;99674.50;1223487;75;2911895;-64
2024/01/28 10:16:04;;;;;;;3.95;1.90;;;;;;;11.02;42.28;99677.78;1224832;75;2924466;-66
2024/01/28 10:18:37;;;;;;;4.10;2.25;;;;;;;11.33;42.55;99663.66;1222805;75;2918579;-65
2024/01/28 10:21:12;;;;;;;3.60;1.80;;;;;;;11.70;41.69;99673.25;1224440;75;2906853;-62
2024/01/28 10:23:47;;;;;;;6.10;2.75;;;;;;;10.28;44.27;99665.34;1223008;75;2919944;-65
2024/01/28 10:26:20;;;;;;;6.30;2.65;;;;;;;10.65;44.02;99666.09;1224190;75;2922335;-65
2024/01/28 10:28:54;;;;;;;5.70;2.10;;;;;;;11.88;42.52;99656.31;1225220;75;2911143;-67
2024/01/28 10:31:27;;;;;;;8.65;2.90;;;;;;;10.76;43.36;99660.38;1223666;75;2918632;-68
2024/01/28 10:33:59;;;;;;;5.70;2.60;;;;;;;10.91;43.06;99653.34;1224634;75;2912413;-65
2024/01/28 10:36:39;;;;;;;5.55;2.60;;;;;;;11.22;43.10;99653.75;1224949;75;2918773;-64
2024/01/28 10:39:17;;;;;;;5.35;2.50;;;;;;;10.58;44.33;99652.56;1225118;75;2922615;-66
2024/01/28 10:41:58;;;;;;;4.40;2.30;;;;;;;12.35;42.00;99642.78;1225174;75;2911805;-64
2024/01/28 10:44:31;;;;;;;5.00;2.40;;;;;;;12.23;41.80;99643.53;1224611;75;2914233;-65
2024/01/28 10:47:06;;;;;;;4.40;2.05;;;;;;;12.30;41.86;99646.06;1223000;75;2917098;-65
2024/01/28 10:49:43;;;;;;;5.15;2.10;;;;;;;12.14;41.85;99637.94;1224212;75;2919217;-66
2024/01/28 10:52:21;;;;;;;3.70;2.10;;;;;;;12.44;41.56;99630.38;1223794;75;2922221;-69
2024/01/28 10:54:54;;;;;;;5.10;2.30;;;;;;;12.44;41.51;99635.88;1224704;75;2918952;-69
2024/01/28 10:57:29;;;;;;;4.10;1.95;;;;;;;12.34;41.68;99629.50;1224320;75;2918895;-64
2024/01/28 11:00:03;;;;;;;4.65;2.25;;;;;;;12.06;41.95;99620.91;1224517;75;2916314;-64
2024/01/28 11:02:39;;;;;;;7.40;2.15;;;;;;;11.42;42.98;99626.19;1223653;75;2913612;-63
2024/01/28 11:05:13;;;;;;;5.35;2.25;;;;;;;12.43;41.61;99626.84;1224552;75;2916146;-65
2024/01/28 11:07:49;;;;;;;7.35;2.10;;;;;;;12.02;41.94;99619.47;1223626;75;2924914;-68
2024/01/28 11:10:23;;;;;;;5.40;1.90;;;;;;;11.72;42.42;99626.97;1224414;75;2920019;-67
2024/01/28 11:12:57;;;;;;;5.20;2.30;;;;;;;11.42;42.96;99630.91;1222811;67;2918275;-68
2024/01/28 11:15:32;;;;;;;5.80;2.20;;;;;;;12.43;41.57;99617.84;1224572;75;2923150;-64
2024/01/28 11:18:05;;;;;;;5.70;2.05;;;;;;;12.60;40.72;99616.50;1224285;75;2919756;-67
2024/01/28 11:20:38;;;;;;;3.90;1.65;;;;;;;11.04;43.35;99615.84;1223152;75;2868793;-65
2024/01/28 11:23:19;;;;;;;5.45;1.90;;;;;;;12.60;41.20;99616.50;1224570;75;2914487;-66
2024/01/28 11:25:55;;;;;;;5.40;1.90;;;;;;;12.71;41.27;99603.19;1224685;75;2938833;-67
2024/01/28 11:28:29;;;;;;;4.70;1.65;;;;;;;12.98;41.17;99615.66;1225031;75;2914234;-65
2024/01/28 11:31:02;;;;;;;5.00;1.95;;;;;;;12.99;40.17;99611.72;1225148;75;2915496;-64
2024/01/28 11:33:38;;;;;;;3.30;1.45;;;;;;;13.67;39.70;99601.13;1224344;75;2915665;-65
2024/01/28 11:36:12;;;;;;;3.80;1.70;;;;;;;12.99;39.99;99600.72;1224173;75;2912428;-65
2024/01/28 11:38:50;;;;;;;4.30;1.60;;;;;;;12.60;40.34;99597.25;1224105;75;2922904;-66
2024/01/28 11:41:26;;;;;;;4.70;2.10;;;;;;;13.36;39.38;99592.78;1225777;75;2916282;-65
2024/01/28 11:43:59;;;;;;;4.40;2.35;;;;;;;12.44;40.27;99592.69;1224094;75;2920642;-66
2024/01/28 11:46:32;;;;;;;3.90;1.90;;;;;;;12.59;40.63;99584.75;1223508;75;2918821;-65